Lafayette, TN

12:35 PM CDT on September 16, 2014 (GMT -0500)
Upper Cumberland Regional | Change Station
CLOSE
Current Station
Airport
Location: Sparta,
Elevation: 1024 ft
Nearby Weather Stations

Elev 1024 ft 36.05 °N, 85.54 °W | Updated 20 minutes ago

Overcast
Overcast
70 °F
Feels Like 70 °F
N
4
Wind Variable Wind from NNW

Today
High -- | Low -- °F
--% Chance of Precip.
Yesterday
High -- | Low -- °F
Precip. -- in
6:27 AM 6:50 PM
Last Quarter, 44% visible
Pressure 30.11 in
Visibility 10.0 miles
Clouds Overcast 1300 ft
Dew Point 66 °F
Humidity 88%
Rainfall 0.00 in
Snow Depth Not available.
UV 3 out of 12
Pollen 6.20 out of 12
Ozone Good
PM2.5 Moderate
Flu Activity Not available.
METAR KSRB 161715Z AUTO 34003KT 10SM OVC013 21/19 A3011 RMK

More Conditions Fewer Conditions

Pressure 30.11 in
Visibility 10.0 miles
Clouds Overcast 1300 ft
Dew Point 66 °F
Humidity 88%
Rainfall 0.00 in
Snow Depth Not available.
UV 3 out of 12
Pollen 6.20 out of 12
Ozone Good
PM2.5 Moderate
Flu Activity Not available.
METAR KSRB 161715Z AUTO 34003KT 10SM OVC013 21/19 A3011 RMK

More Conditions Fewer Conditions

10-Day Weather Forecast

Almanac

Astronomy

Sep. 16, 2014 Rise Set
Actual Time 6:27 AM CDT 6:50 PM CDT
Civil Twilight 6:01 AM CDT 7:15 PM CDT
Nautical Twilight 5:31 AM CDT 7:46 PM CDT
Astronomical Twilight 5:00 AM CDT 8:16 PM CDT
Moon No Moon Rise 2:06 PM CDT
Length of Visible Light 13h 14m
Length of Day
12h 22m
Tomorrow will be 2m 17s shorter.
Last Quarter, 44% of the Moon is Illuminated
Today
Last Quarter
Sep 24
New
Oct 1
First Quarter
Oct 8
Full
Oct 15
Last Quarter

Today's Extremes

State Highs State Lows

Community

WunderPhotos

Upload Photos

1,753,838 photos uploaded!

Nearby

Air Quality

  Air Quality AQ Index Pollutant
Yesterday Good
PM2.5
Yesterday Good
OZONE
Current Moderate
PM2.5
Current Good
OZONE
Tuesday Moderate
PM2.5
Tuesday Good
OZONE
Wednesday Good
OZONE
Wednesday Good
PM2.5

Snow Depth

Station Depth Elevation
No new snow has been reported.

Earthquake Activity

City Distance Mag. Time & Date
No recent earthquake activity has been reported nearby.
Minimum magnitude displayed is 2.5.

Coastal Water Temperatures

Place Temperature
No Stations Reporting

Nearby Weather Stations